Terminal Aerodrome Forecast
Issued by NWS

Home | Current Version | Previous Version | Text Only | Print | Product List | Glossary On
Versions: 1 2 3 4 5 6 7 8 9 10 11 12
000
FTUS43 KGRB 051720
TAFATW
TAF
KATW 051720Z 0518/0618 20010KT P6SM BKN040
     FM052200 18009KT P6SM SCT045 BKN250
     FM060100 17005KT P6SM FEW050 BKN250
     FM060600 18004KT 5SM BR FEW120 SCT250 WS015/22030KT
     FM061400 18013G20KT P6SM SCT040 BKN120 PROB30 0616/0618 4SM
      -TSRA BR BKN040CB=

USA.gov is the U.S. government's official web portal to all federal, state and local government web resources and services.